x

Fowey Rock, Fl (fwyf1) Weather Station

2:00am - Mon 23rd Oct 2017 All times are EDT. -4 hours from GMT.

  • Wind
    22mph, 24mph gusts
  • Sea Temp 82°f
  • Air Temp 82°f
  • Sea Pressure 1018.2mb
  • Fowey Rock, Fl
  • Fowey Rock, Fl

More Historic Weather Station data

Upgrade to MSW Pro to gain access to the past 30 days of data for over 8000 Wavebouys and Weather Stations around the globe.

Join

Comparision Forecast

View Surf forecast
   
Mon 10/23 2:00am 22 24 mph 1018.2mb 82f 82f
1:00am 24 25 mph 1018.5mb 82f 82f
12:00am 25 29 mph 1018.8mb 83f 82f
Sun 10/22 11:00pm 25 28 mph 1018.8mb 82f 82f
10:00pm 25 26 mph 1018.8mb 83f 82f
9:00pm 28 30 mph 1018.5mb 83f 82f
8:00pm 30 33 mph 1018.4mb 83f 82f
7:00pm 24 26 mph 1018.2mb 83f 82f
6:00pm 23 26 mph 1018.1mb 83f 82f
5:00pm 22 24 mph 1017.9mb 83f 82f
4:00pm 21 23 mph 1018.1mb 83f 82f
3:00pm 22 24 mph 1018.2mb 83f 82f
2:00pm 24 26 mph 1018.5mb 83f 82f
1:00pm 24 25 mph 1019.5mb 83f 82f
12:00pm 24 28 mph 1019.9mb 83f 82f
11:00am 26 28 mph 1020mb 83f 82f
10:00am 24 28 mph 1019.7mb 82f 83f
9:00am 26 28 mph 1019.1mb 82f 82f
8:00am 25 28 mph 1018.6mb 82f 82f
7:00am 25 29 mph 1018.2mb 83f 82f
6:00am 25 29 mph 1017.8mb 83f 82f
5:00am 23 25 mph 1017.3mb 83f 82f
4:00am 22 25 mph 1017mb 82f 82f
3:00am 23 24 mph 1017.5mb 82f 82f
2:00am 26 29 mph 1017.7mb 83f 83f
1:00am 25 28 mph 1018.4mb 83f 83f
12:00am 26 28 mph 1018.7mb 83f 83f
Sat 10/21 11:00pm 23 24 mph 1019.2mb 83f 82f
9:00pm 25 28 mph 1018.4mb 83f 82f
8:00pm 22 25 mph 1018mb 83f 82f
7:00pm 24 26 mph 1017.8mb 83f 82f
6:00pm 24 25 mph 1017.4mb 82f 82f
5:00pm 26 28 mph 1017.1mb 83f 82f
4:00pm 26 30 mph 1017.1mb 83f 82f
3:00pm 29 30 mph 1017.2mb 83f 82f
2:00pm 29 31 mph 1017.8mb 83f 82f
1:00pm 29 30 mph 1018.6mb 83f 82f
12:00pm 29 31 mph 1018.9mb 83f 82f
11:00am 32 34 mph 1018.5mb 83f 82f
10:00am 26 30 mph 1018.3mb 82f 82f
9:00am 30 32 mph 1017.7mb 82f 82f
8:00am 30 32 mph 1016.8mb 82f 81f
7:00am 25 28 mph 1016.4mb 82f 80f
6:00am 26 29 mph 1015.9mb 82f 82f
5:00am 30 32 mph 1015.5mb 82f 81f
4:00am 26 29 mph 1015.5mb 82f 82f
3:00am 29 31 mph 1016.1mb 82f 81f
2:00am 29 31 mph 1016.5mb 83f 82f
1:00am 31 33 mph 1016.9mb 83f 81f
12:00am 31 33 mph 1017.2mb 83f 82f
Fri 10/20 11:00pm 30 32 mph 1017.3mb 83f 82f
10:00pm 29 31 mph 1017.1mb 83f 82f
9:00pm 34 37 mph 1016.7mb 83f 82f
8:00pm 31 36 mph 1016.3mb 83f 82f
7:00pm 26 30 mph 1015.9mb 83f 81f
6:00pm 30 31 mph 1015.5mb 83f 81f
5:00pm 26 29 mph 1015.4mb 83f 82f
4:00pm 23 24 mph 1015.7mb 83f 82f
3:00pm 20 22 mph 1015.7mb 83f 82f
2:00pm 22 24 mph 1016.4mb 83f 82f
1:00pm 20 21 mph 1017.4mb 83f 82f
12:00pm 18 21 mph 1018mb 83f 82f
10:00am 20 21 mph 1017.9mb 83f 82f
9:00am 20 21 mph 1017.4mb 83f 82f
8:00am 18 20 mph 1016.8mb 83f 82f
7:00am 17 18 mph 1016.8mb 83f 81f
6:00am 17 18 mph 1016.3mb 83f 81f
5:00am 16 17 mph 1016.2mb 83f 81f
4:00am 16 17 mph 1016.1mb 83f 81f
3:00am 18 21 mph 1016.5mb 83f 81f
2:00am 20 22 mph 1016.8mb 83f 81f
1:00am 22 23 mph 1017.1mb 83f 81f
12:00am 23 25 mph 1017.4mb 83f 82f
Thu 10/19 11:00pm 17 18 mph 1017.6mb 83f 80f
10:00pm 28 32 mph 1017.3mb 83f 81f
9:00pm 21 22 mph 1016.7mb 83f 81f
8:00pm 23 24 mph 1016.2mb 83f 82f
7:00pm 20 21 mph 1015.7mb 83f 82f
6:00pm 18 21 mph 1015.4mb 83f 82f
5:00pm 18 20 mph 1015.5mb 83f 82f
4:00pm 17 20 mph 1015.3mb 83f 82f
3:00pm 11 13 mph 1015.6mb 83f 82f
2:00pm 13 15 mph 1015.8mb 83f 82f
1:00pm 10 11 mph 1016.8mb 83f 82f
12:00pm 10 11 mph 1017.4mb 83f 82f
11:00am 10 11 mph 1017.7mb 83f 82f
10:00am 10 11 mph 1017.4mb 82f 81f
9:00am 8 9 mph 1017mb 82f 82f
8:00am 11 13 mph 1016.4mb 82f 80f